Milford, Virginia
Current Conditions -  °F | °C
As of 5:35 PM on Monday 20 Oct 2014 (Local Time) from KEZF Reporting Station
Clear Clear  
Wind Chill: 67°   Ceiling: Unl
Heat Index: 67°   Visibility: 10mi
Dew Point: 47°   Wind: 5mph
Humidity: 48%   Direction: 180°S
Pressure: 29.94"   Gusts: NA
Location:  38.02°N, 77.37°W
Report Text: KEZF 202135Z AUTO 18004KT 10SM CLR 19/08 A2994 RMK AO2 T01940081
Loading
Personal Weather Stations






























Interactive Weather Map
Tropical Storm Tracking
New forecast layout! Learn more

10-Day Weather Forecast

Advertisements
Track Severe Weather on mobile